Terminal Aerodrome Forecast
Issued by NWS

Home | Current Version | Previous Version | Text Only | Print | Product List | Glossary On
Versions: 1 2 3 4 5 6 7 8 9 10 11 12 13 14 15 16 17 18
457
FTUS43 KGRR 240627 AAA
TAFLAN
TAF AMD
KLAN 240627Z 2406/2506 26012KT P6SM -RA OVC040
     FM240900 22010KT 4SM -SHRA BR OVC015
     FM241100 22008KT 4SM -SHRA BR OVC010
     FM241400 22014G24KT 3SM -SHRA BR OVC010
     FM250000 25012KT 3SM -SHRA BR OVC015=

USA.gov is the U.S. government's official web portal to all federal, state and local government web resources and services.